createdAt,value
2023-05-21T00:00:30.805Z,6.97
2023-05-21T00:02:59.178Z,6.30
2023-05-21T00:05:26.888Z,6.97
2023-05-21T00:07:55.128Z,6.73
2023-05-21T00:10:22.566Z,7.70
2023-05-21T00:12:49.891Z,7.22
2023-05-21T00:15:17.218Z,6.60
2023-05-21T00:17:46.135Z,7.35
2023-05-21T00:20:13.565Z,6.67
2023-05-21T00:22:42.561Z,7.20
2023-05-21T00:25:11.089Z,6.93
2023-05-21T00:27:38.395Z,6.72
2023-05-21T00:30:06.953Z,6.75
2023-05-21T00:32:34.329Z,6.67
2023-05-21T00:35:01.753Z,6.40
2023-05-21T00:37:33.004Z,6.82
2023-05-21T00:40:01.838Z,7.05
2023-05-21T00:42:30.793Z,6.68
2023-05-21T00:44:58.330Z,6.40
2023-05-21T00:47:27.020Z,6.38
2023-05-21T00:49:54.444Z,6.93
2023-05-21T00:52:23.075Z,6.68
2023-05-21T00:54:50.630Z,6.60
2023-05-21T00:57:20.866Z,6.60
2023-05-21T00:59:49.319Z,6.43
2023-05-21T01:02:18.334Z,6.97
2023-05-21T01:04:46.002Z,7.30
2023-05-21T01:07:14.615Z,6.75
2023-05-21T01:09:42.086Z,6.90
2023-05-21T01:12:09.413Z,7.15
2023-05-21T01:14:37.576Z,6.72
2023-05-21T01:17:05.556Z,6.68
2023-05-21T01:19:33.050Z,6.63
2023-05-21T01:22:09.408Z,6.70
2023-05-21T01:24:36.953Z,6.72
2023-05-21T01:27:06.755Z,6.60
2023-05-21T01:29:34.218Z,6.90
2023-05-21T01:32:16.272Z,6.95
2023-05-21T01:35:22.571Z,6.43
2023-05-21T01:37:55.281Z,6.63
2023-05-21T01:40:39.407Z,6.43
2023-05-21T01:43:06.912Z,6.90
2023-05-21T01:45:34.368Z,6.15
2023-05-21T01:48:01.945Z,6.13
2023-05-21T01:50:29.546Z,7.05
2023-05-21T01:53:01.312Z,6.60
2023-05-21T01:55:31.261Z,6.93
2023-05-21T01:58:01.974Z,6.43
2023-05-21T02:00:30.920Z,6.80
2023-05-21T02:02:58.831Z,6.18
2023-05-21T02:05:26.274Z,6.90
2023-05-21T02:07:55.003Z,7.10
2023-05-21T02:10:23.091Z,6.28
2023-05-21T02:12:50.408Z,6.13
2023-05-21T02:15:20.589Z,6.20
2023-05-21T02:17:48.013Z,6.43
2023-05-21T02:20:15.683Z,6.45
2023-05-21T02:22:47.028Z,6.28
2023-05-21T02:25:16.530Z,6.10
2023-05-21T02:27:44.571Z,6.40
2023-05-21T02:30:12.531Z,7.10
2023-05-21T02:32:42.731Z,6.22
2023-05-21T02:35:11.893Z,6.30
2023-05-21T02:37:40.568Z,7.27
2023-05-21T02:40:10.213Z,7.22
2023-05-21T02:42:39.790Z,7.55
2023-05-21T02:45:11.383Z,6.40
2023-05-21T02:47:41.110Z,6.63
2023-05-21T02:50:09.084Z,6.07
2023-05-21T02:52:43.189Z,6.68
2023-05-21T02:55:10.576Z,6.60
2023-05-21T02:57:37.884Z,6.53
2023-05-21T03:00:09.842Z,6.80
2023-05-21T03:02:38.809Z,6.43
2023-05-21T03:05:06.814Z,7.18
2023-05-21T03:07:34.225Z,7.38
2023-05-21T03:10:01.993Z,6.65
2023-05-21T03:12:29.375Z,6.82
2023-05-21T03:14:56.658Z,6.40
2023-05-21T03:17:24.058Z,6.47
2023-05-21T03:19:52.116Z,6.72
2023-05-21T03:22:20.106Z,6.72
2023-05-21T03:24:47.512Z,6.75
2023-05-21T03:27:15.791Z,6.53
2023-05-21T03:29:44.670Z,6.57
2023-05-21T03:32:13.413Z,6.57
2023-05-21T03:34:41.230Z,6.72
2023-05-21T03:37:08.556Z,6.63
2023-05-21T03:39:35.947Z,6.10
2023-05-21T03:42:03.541Z,6.15
2023-05-21T03:44:40.948Z,6.53
2023-05-21T03:47:37.571Z,6.47
2023-05-21T03:50:09.317Z,6.10
2023-05-21T03:52:36.805Z,6.23
2023-05-21T03:55:05.021Z,6.47
2023-05-21T03:57:32.823Z,6.10
2023-05-21T04:00:00.302Z,6.20
2023-05-21T04:02:27.829Z,5.95
2023-05-21T04:04:56.168Z,6.23
2023-05-21T04:07:24.849Z,6.20
2023-05-21T04:09:52.188Z,5.82
2023-05-21T04:12:20.439Z,5.72
2023-05-21T04:14:48.178Z,6.57
2023-05-21T04:17:15.544Z,6.40
2023-05-21T04:19:42.882Z,6.30
2023-05-21T04:22:11.183Z,6.53
2023-05-21T04:24:39.404Z,6.30
2023-05-21T04:27:11.615Z,6.30
2023-05-21T04:29:42.776Z,6.53
2023-05-21T04:32:11.612Z,6.13
2023-05-21T04:34:39.772Z,5.97
2023-05-21T04:37:07.103Z,6.30
2023-05-21T04:39:34.891Z,6.68
2023-05-21T04:42:03.342Z,6.57
2023-05-21T04:44:30.764Z,6.55
2023-05-21T04:47:00.562Z,6.85
2023-05-21T04:49:28.029Z,7.10
2023-05-21T04:51:55.581Z,6.80
2023-05-21T04:54:23.119Z,6.97
2023-05-21T04:56:50.895Z,6.70
2023-05-21T04:59:18.652Z,6.93
2023-05-21T05:01:46.771Z,6.75
2023-05-21T05:04:14.048Z,7.30
2023-05-21T05:06:41.642Z,7.30
2023-05-21T05:09:08.957Z,7.43
2023-05-21T05:11:36.655Z,7.13
2023-05-21T05:14:04.718Z,7.30
2023-05-21T05:16:32.194Z,7.32
2023-05-21T05:18:59.806Z,7.17
2023-05-21T05:21:27.211Z,7.90
2023-05-21T05:23:54.698Z,7.80
2023-05-21T05:26:26.490Z,7.57
2023-05-21T05:28:53.836Z,7.07
2023-05-21T05:31:21.226Z,7.17
2023-05-21T05:33:48.679Z,7.50
2023-05-21T05:36:16.556Z,7.38
2023-05-21T05:38:43.980Z,7.80
2023-05-21T05:41:11.836Z,7.35
2023-05-21T05:43:39.579Z,7.33
2023-05-21T05:46:07.025Z,7.28
2023-05-21T05:48:34.429Z,7.50
2023-05-21T05:51:02.410Z,6.97
2023-05-21T05:53:32.407Z,7.90
2023-05-21T05:55:59.961Z,7.73
2023-05-21T05:58:27.681Z,7.40
2023-05-21T06:01:07.224Z,7.25
2023-05-21T06:03:34.786Z,8.15
2023-05-21T06:06:09.644Z,6.80
2023-05-21T06:08:38.142Z,7.43
2023-05-21T06:11:05.674Z,7.80
2023-05-21T06:13:32.951Z,7.88
2023-05-21T06:16:00.589Z,7.15
2023-05-21T06:18:27.930Z,7.05
2023-05-21T06:20:55.380Z,7.20
2023-05-21T06:23:23.848Z,7.22
2023-05-21T06:25:51.169Z,7.25
2023-05-21T06:28:19.755Z,7.05
2023-05-21T06:30:48.603Z,7.32
2023-05-21T06:33:16.558Z,7.20
2023-05-21T06:35:44.872Z,6.95
2023-05-21T06:38:12.858Z,7.15
2023-05-21T06:40:40.239Z,6.85
2023-05-21T06:43:11.265Z,7.10
2023-05-21T06:45:57.013Z,6.87
2023-05-21T06:48:38.193Z,6.95
2023-05-21T06:51:06.075Z,6.53
2023-05-21T06:53:33.680Z,6.65
2023-05-21T06:56:01.209Z,6.78
2023-05-21T06:58:41.199Z,6.93
2023-05-21T07:01:08.655Z,6.65
2023-05-21T07:03:36.621Z,6.93
2023-05-21T07:06:04.121Z,6.28
2023-05-21T07:08:31.486Z,6.90
2023-05-21T07:10:59.654Z,5.57
2023-05-21T07:13:27.301Z,5.32
2023-05-21T07:15:54.717Z,5.80
2023-05-21T07:18:22.124Z,5.32
2023-05-21T07:20:50.497Z,5.30
2023-05-21T07:23:17.948Z,5.40
2023-05-21T07:25:46.526Z,5.57
2023-05-21T07:28:14.696Z,5.25
2023-05-21T07:30:42.039Z,5.35
2023-05-21T07:33:14.093Z,5.13
2023-05-21T07:35:41.559Z,4.80
2023-05-21T07:38:08.879Z,4.70
2023-05-21T07:40:36.452Z,4.93
2023-05-21T07:43:04.466Z,4.90
2023-05-21T07:45:33.322Z,4.65
2023-05-21T07:48:01.138Z,4.57
2023-05-21T07:50:31.360Z,4.43
2023-05-21T07:52:58.800Z,4.53
2023-05-21T07:55:26.265Z,4.63
2023-05-21T07:57:53.937Z,4.88
2023-05-21T08:00:26.798Z,4.90
2023-05-21T08:02:57.473Z,4.63
2023-05-21T08:05:25.726Z,4.70
2023-05-21T08:07:53.122Z,4.90
2023-05-21T08:10:21.352Z,4.90
2023-05-21T08:12:51.154Z,4.63
2023-05-21T08:15:19.028Z,4.30
2023-05-21T08:17:46.630Z,4.50
2023-05-21T08:20:15.217Z,4.40
2023-05-21T08:22:44.631Z,4.70
2023-05-21T08:25:12.360Z,4.63
2023-05-21T08:27:39.865Z,4.55
2023-05-21T08:30:08.148Z,4.70
2023-05-21T08:32:35.897Z,4.50
2023-05-21T08:35:03.631Z,4.47
2023-05-21T08:37:49.683Z,4.77
2023-05-21T08:40:24.674Z,4.43
2023-05-21T08:42:52.453Z,5.18
2023-05-21T08:45:38.419Z,4.57
2023-05-21T08:48:06.408Z,4.35
2023-05-21T08:50:35.216Z,4.40
2023-05-21T08:53:15.914Z,4.90
2023-05-21T08:55:52.679Z,4.60
2023-05-21T08:58:20.814Z,5.00
2023-05-21T09:00:48.230Z,4.88
2023-05-21T09:03:16.093Z,4.37
2023-05-21T09:05:45.111Z,4.47
2023-05-21T09:08:18.762Z,5.15
2023-05-21T09:11:01.229Z,4.63
2023-05-21T09:13:33.145Z,4.88
2023-05-21T09:16:03.862Z,4.50
2023-05-21T09:18:31.556Z,5.35
2023-05-21T09:21:29.652Z,4.40
2023-05-21T09:24:19.845Z,4.90
2023-05-21T09:26:47.247Z,4.72
2023-05-21T09:29:14.602Z,5.27
2023-05-21T09:31:45.258Z,5.10
2023-05-21T09:34:17.094Z,4.65
2023-05-21T09:36:47.118Z,4.68
2023-05-21T09:39:36.079Z,5.45
2023-05-21T09:42:04.882Z,4.17
2023-05-21T09:44:32.519Z,4.38
2023-05-21T09:47:00.233Z,4.47
2023-05-21T09:49:28.334Z,4.55
2023-05-21T09:51:57.668Z,4.72
2023-05-21T09:54:32.515Z,4.87
2023-05-21T09:57:02.961Z,4.50
2023-05-21T09:59:39.501Z,4.38
2023-05-21T10:02:21.404Z,4.47
2023-05-21T10:04:50.276Z,4.07
2023-05-21T10:07:19.339Z,4.20
2023-05-21T10:09:48.046Z,4.40
2023-05-21T10:12:17.049Z,4.85
2023-05-21T10:14:44.575Z,4.63
2023-05-21T10:17:11.867Z,4.15
2023-05-21T10:19:39.433Z,4.40
2023-05-21T10:22:06.870Z,4.00
2023-05-21T10:24:34.132Z,4.60
2023-05-21T10:27:01.965Z,4.30
2023-05-21T10:29:29.219Z,4.28
2023-05-21T10:31:56.565Z,4.47
2023-05-21T10:34:25.027Z,4.22
2023-05-21T10:36:52.855Z,4.43
2023-05-21T10:39:20.882Z,4.75
2023-05-21T10:42:02.913Z,4.47
2023-05-21T10:44:56.265Z,4.43
2023-05-21T10:48:16.339Z,4.60
2023-05-21T10:51:10.454Z,4.95
2023-05-21T10:53:54.245Z,4.80
2023-05-21T10:56:27.259Z,4.75
2023-05-21T10:59:21.973Z,4.27
2023-05-21T11:01:52.897Z,4.82
2023-05-21T11:04:29.412Z,4.72
2023-05-21T11:06:58.583Z,4.38
2023-05-21T11:09:26.706Z,4.72
2023-05-21T11:11:58.271Z,4.50
2023-05-21T11:14:36.310Z,4.45
2023-05-21T11:17:06.621Z,4.93
2023-05-21T11:19:36.087Z,4.80
2023-05-21T11:22:11.420Z,4.55
2023-05-21T11:24:39.763Z,4.40
2023-05-21T11:27:07.301Z,5.13
2023-05-21T11:29:44.662Z,4.95
2023-05-21T11:32:12.936Z,4.78
2023-05-21T11:34:46.800Z,5.28
2023-05-21T11:37:29.198Z,5.10
2023-05-21T11:39:57.878Z,4.78
2023-05-21T11:42:31.769Z,4.88
2023-05-21T11:44:59.534Z,5.05
2023-05-21T11:47:27.438Z,4.93
2023-05-21T11:49:56.018Z,4.93
2023-05-21T11:52:23.449Z,4.82
2023-05-21T11:54:57.540Z,5.10
2023-05-21T11:57:26.853Z,5.38
2023-05-21T11:59:54.232Z,4.68
2023-05-21T12:02:21.985Z,4.77
2023-05-21T12:04:50.217Z,4.95
2023-05-21T12:07:19.157Z,5.00
2023-05-21T12:09:48.121Z,5.40
2023-05-21T12:12:19.875Z,5.00
2023-05-21T12:14:48.537Z,5.00
2023-05-21T12:17:16.797Z,5.05
2023-05-21T12:19:45.541Z,5.05
2023-05-21T12:22:12.923Z,5.07
2023-05-21T12:24:40.211Z,5.22
2023-05-21T12:27:10.565Z,5.00
2023-05-21T12:29:40.769Z,4.95
2023-05-21T12:32:09.368Z,5.07
2023-05-21T12:34:54.517Z,4.90
2023-05-21T12:37:26.438Z,5.35
2023-05-21T12:39:55.141Z,4.80
2023-05-21T12:42:26.223Z,4.93
2023-05-21T12:44:53.590Z,5.15
2023-05-21T12:47:23.503Z,4.80
2023-05-21T12:49:53.111Z,5.07
2023-05-21T12:52:22.451Z,4.77
2023-05-21T12:54:51.390Z,5.28
2023-05-21T12:57:19.780Z,5.35
2023-05-21T12:59:47.784Z,5.10
2023-05-21T13:02:16.340Z,5.28
2023-05-21T13:04:43.741Z,5.07
2023-05-21T13:07:11.038Z,5.03
2023-05-21T13:09:38.388Z,5.15
2023-05-21T13:12:05.968Z,4.70
2023-05-21T13:14:33.295Z,4.70
2023-05-21T13:17:00.662Z,4.93
2023-05-21T13:19:28.239Z,4.78
2023-05-21T13:21:55.588Z,4.70
2023-05-21T13:24:22.924Z,4.72
2023-05-21T13:26:50.257Z,4.72
2023-05-21T13:29:17.563Z,4.90
2023-05-21T13:31:44.930Z,4.68
2023-05-21T13:34:12.666Z,5.03
2023-05-21T13:36:40.743Z,5.15
2023-05-21T13:39:08.136Z,5.00
2023-05-21T13:41:35.537Z,5.07
2023-05-21T13:44:02.826Z,5.28
2023-05-21T13:46:30.230Z,5.10
2023-05-21T13:48:57.579Z,4.82
2023-05-21T13:51:38.033Z,5.13
2023-05-21T13:54:06.596Z,4.90
2023-05-21T13:56:34.017Z,4.85
2023-05-21T13:59:01.634Z,5.10
2023-05-21T14:01:29.141Z,4.85
2023-05-21T14:03:56.621Z,4.55
2023-05-21T14:06:23.968Z,4.93
2023-05-21T14:08:51.277Z,4.95
2023-05-21T14:11:18.749Z,5.50
2023-05-21T14:13:46.092Z,5.40
2023-05-21T14:16:13.491Z,6.28
2023-05-21T14:18:41.131Z,5.40
2023-05-21T14:21:08.467Z,6.03
2023-05-21T14:23:35.743Z,5.60
2023-05-21T14:26:03.321Z,6.30
2023-05-21T14:28:32.727Z,6.43
2023-05-21T14:31:00.035Z,6.50
2023-05-21T14:33:27.316Z,6.13
2023-05-21T14:35:54.619Z,6.85
2023-05-21T14:38:21.878Z,6.50
2023-05-21T14:40:49.174Z,7.25
2023-05-21T14:43:16.484Z,6.43
2023-05-21T14:45:43.817Z,6.00
2023-05-21T14:48:11.828Z,6.40
2023-05-21T14:50:39.233Z,5.70
2023-05-21T14:53:10.034Z,7.03
2023-05-21T14:55:37.564Z,7.10
2023-05-21T14:58:05.595Z,6.00
2023-05-21T15:00:33.310Z,6.00
2023-05-21T15:03:01.214Z,6.13
2023-05-21T15:05:29.410Z,6.53
2023-05-21T15:07:57.241Z,6.40
2023-05-21T15:10:27.969Z,6.65
2023-05-21T15:12:55.282Z,6.10
2023-05-21T15:15:22.645Z,6.00
2023-05-21T15:17:50.348Z,6.35
2023-05-21T15:20:18.836Z,6.20
2023-05-21T15:22:47.529Z,6.40
2023-05-21T15:25:14.881Z,6.15
2023-05-21T15:27:42.195Z,6.20
2023-05-21T15:30:09.674Z,6.30
2023-05-21T15:32:37.034Z,5.60
2023-05-21T15:35:04.680Z,5.70
2023-05-21T15:37:33.137Z,4.93
2023-05-21T15:40:00.690Z,5.38
2023-05-21T15:42:31.318Z,5.63
2023-05-21T15:44:58.729Z,5.50
2023-05-21T15:47:26.151Z,5.35
2023-05-21T15:49:53.482Z,6.13
2023-05-21T15:52:21.517Z,5.60
2023-05-21T15:54:48.841Z,5.25
2023-05-21T15:57:16.190Z,5.43
2023-05-21T15:59:43.512Z,5.50
2023-05-21T16:02:10.878Z,6.03
2023-05-21T16:04:38.246Z,5.72
2023-05-21T16:07:05.611Z,5.78
2023-05-21T16:09:32.981Z,5.30
2023-05-21T16:12:00.888Z,4.35
2023-05-21T16:14:29.396Z,4.53
2023-05-21T16:16:56.762Z,4.30
2023-05-21T16:19:24.141Z,4.10
2023-05-21T16:21:51.444Z,3.93
2023-05-21T16:24:18.742Z,3.97
2023-05-21T16:26:46.326Z,3.72
2023-05-21T16:29:13.651Z,3.78
2023-05-21T16:31:40.993Z,4.10
2023-05-21T16:34:08.283Z,3.57
2023-05-21T16:36:37.452Z,3.45
2023-05-21T16:39:04.762Z,3.65
2023-05-21T16:41:32.061Z,3.22
2023-05-21T16:43:59.317Z,3.38
2023-05-21T16:46:26.632Z,3.37
2023-05-21T16:48:54.047Z,3.58
2023-05-21T16:51:21.418Z,3.33
2023-05-21T16:53:48.910Z,3.22
2023-05-21T16:56:16.246Z,3.65
2023-05-21T16:58:43.629Z,3.60
2023-05-21T17:01:11.034Z,3.15
2023-05-21T17:03:39.773Z,3.22
2023-05-21T17:06:08.943Z,3.20
2023-05-21T17:08:36.351Z,3.35
2023-05-21T17:11:03.716Z,3.00
2023-05-21T17:13:31.048Z,3.28
2023-05-21T17:15:58.409Z,3.05
2023-05-21T17:18:25.716Z,3.30
2023-05-21T17:20:53.040Z,3.63
2023-05-21T17:23:20.478Z,3.40
2023-05-21T17:25:47.965Z,3.05
2023-05-21T17:28:15.359Z,3.25
2023-05-21T17:30:43.038Z,3.10
2023-05-21T17:33:10.803Z,3.00
2023-05-21T17:35:38.874Z,3.50
2023-05-21T17:38:07.071Z,3.08
2023-05-21T17:40:34.438Z,3.30
2023-05-21T17:43:01.838Z,3.00
2023-05-21T17:45:29.125Z,3.10
2023-05-21T17:47:59.882Z,2.60
2023-05-21T17:50:28.012Z,3.00
2023-05-21T17:52:55.411Z,3.20
2023-05-21T17:55:22.745Z,2.92
2023-05-21T17:57:50.184Z,3.28
2023-05-21T18:00:17.802Z,3.10
2023-05-21T18:02:45.136Z,2.72
2023-05-21T18:05:12.473Z,2.88
2023-05-21T18:07:39.806Z,2.72
2023-05-21T18:10:07.563Z,3.10
2023-05-21T18:12:35.096Z,2.80
2023-05-21T18:15:02.364Z,3.42
2023-05-21T18:17:29.709Z,3.65
2023-05-21T18:19:57.051Z,3.10
2023-05-21T18:22:24.344Z,2.78
2023-05-21T18:24:51.860Z,2.83
2023-05-21T18:27:19.203Z,3.17
2023-05-21T18:29:48.867Z,3.08
2023-05-21T18:32:16.791Z,2.90
2023-05-21T18:34:44.156Z,2.70
2023-05-21T18:37:11.501Z,2.43
2023-05-21T18:39:38.757Z,2.63
2023-05-21T18:42:13.459Z,2.50
2023-05-21T18:44:41.440Z,2.38
2023-05-21T18:47:08.712Z,2.60
2023-05-21T18:49:36.380Z,2.63
2023-05-21T18:52:04.817Z,2.22
2023-05-21T18:54:32.101Z,2.60
2023-05-21T18:57:00.541Z,2.97
2023-05-21T18:59:28.399Z,3.03
2023-05-21T19:01:56.077Z,2.73
2023-05-21T19:04:23.468Z,2.90
2023-05-21T19:06:50.782Z,3.58
2023-05-21T19:09:18.097Z,2.80
2023-05-21T19:11:45.537Z,3.03
2023-05-21T19:14:12.915Z,2.90
2023-05-21T19:16:40.208Z,2.72
2023-05-21T19:19:07.966Z,2.75
2023-05-21T19:21:35.959Z,2.65
2023-05-21T19:24:05.553Z,2.28
2023-05-21T19:26:33.487Z,2.57
2023-05-21T19:29:00.817Z,2.70
2023-05-21T19:31:28.076Z,2.80
2023-05-21T19:33:55.421Z,2.50
2023-05-21T19:36:22.797Z,2.65
2023-05-21T19:38:50.392Z,2.97
2023-05-21T19:41:18.040Z,3.05
2023-05-21T19:43:45.759Z,3.30
2023-05-21T19:46:14.750Z,3.10
2023-05-21T19:48:43.453Z,2.80
2023-05-21T19:51:10.758Z,3.00
2023-05-21T19:53:38.183Z,3.03
2023-05-21T19:56:05.546Z,2.97
2023-05-21T19:58:33.304Z,3.20
2023-05-21T20:01:00.801Z,3.50
2023-05-21T20:03:32.057Z,2.70
2023-05-21T20:05:59.410Z,2.85
2023-05-21T20:08:26.693Z,3.28
2023-05-21T20:10:54.411Z,2.90
2023-05-21T20:13:21.924Z,2.80
2023-05-21T20:15:49.920Z,2.50
2023-05-21T20:18:17.315Z,2.65
2023-05-21T20:20:44.604Z,2.70
2023-05-21T20:23:11.919Z,2.83
2023-05-21T20:25:39.176Z,2.70
2023-05-21T20:28:08.058Z,2.93
2023-05-21T20:30:36.074Z,2.65
2023-05-21T20:33:03.995Z,2.80
2023-05-21T20:35:31.357Z,2.30
2023-05-21T20:37:58.701Z,3.10
2023-05-21T20:40:26.002Z,2.63
2023-05-21T20:42:54.130Z,2.72
2023-05-21T20:45:22.067Z,2.65
2023-05-21T20:47:50.205Z,2.60
2023-05-21T20:50:18.014Z,2.83
2023-05-21T20:52:47.265Z,2.47
2023-05-21T20:55:14.975Z,2.75
2023-05-21T20:57:42.381Z,2.63
2023-05-21T21:00:12.980Z,2.70
2023-05-21T21:02:40.405Z,2.60
2023-05-21T21:05:10.711Z,2.50
2023-05-21T21:07:38.186Z,2.30
2023-05-21T21:10:05.980Z,2.17
2023-05-21T21:12:33.264Z,2.75
2023-05-21T21:15:00.537Z,2.40
2023-05-21T21:17:27.872Z,2.47
2023-05-21T21:19:55.463Z,2.35
2023-05-21T21:22:22.803Z,2.15
2023-05-21T21:24:50.116Z,2.42
2023-05-21T21:27:17.449Z,2.53
2023-05-21T21:29:45.675Z,2.53
2023-05-21T21:32:12.934Z,2.20
2023-05-21T21:34:40.231Z,2.50
2023-05-21T21:37:07.561Z,2.55
2023-05-21T21:39:34.891Z,3.00
2023-05-21T21:42:02.219Z,3.00
2023-05-21T21:44:29.485Z,3.15
2023-05-21T21:46:56.826Z,2.70
2023-05-21T21:49:24.115Z,2.58
2023-05-21T21:51:51.671Z,2.97
2023-05-21T21:54:18.957Z,2.80
2023-05-21T21:56:46.365Z,2.90
2023-05-21T21:59:13.719Z,2.70
2023-05-21T22:01:41.083Z,3.67
2023-05-21T22:04:08.512Z,4.10
2023-05-21T22:06:39.003Z,6.30
2023-05-21T22:09:06.895Z,6.55
2023-05-21T22:11:34.254Z,5.07
2023-05-21T22:14:02.558Z,3.72
2023-05-21T22:16:29.901Z,3.47
2023-05-21T22:18:58.207Z,3.20
2023-05-21T22:21:29.377Z,3.10
2023-05-21T22:23:56.767Z,2.50
2023-05-21T22:26:24.118Z,2.92
2023-05-21T22:28:51.536Z,2.40
2023-05-21T22:31:18.870Z,2.90
2023-05-21T22:33:46.181Z,2.47
2023-05-21T22:36:13.490Z,2.70
2023-05-21T22:38:40.776Z,2.50
2023-05-21T22:41:08.617Z,2.65
2023-05-21T22:43:35.943Z,2.23
2023-05-21T22:46:03.673Z,2.08
2023-05-21T22:48:31.033Z,2.42
2023-05-21T22:50:58.533Z,2.80
2023-05-21T22:53:25.959Z,2.20
2023-05-21T22:55:53.219Z,2.20
2023-05-21T22:58:20.552Z,2.28
2023-05-21T23:00:48.188Z,2.53
2023-05-21T23:03:16.428Z,3.00
2023-05-21T23:05:43.842Z,2.50
2023-05-21T23:08:11.294Z,2.50
2023-05-21T23:10:38.737Z,2.53
2023-05-21T23:13:06.152Z,2.80
2023-05-21T23:15:33.770Z,2.13
2023-05-21T23:18:03.990Z,2.05
2023-05-21T23:20:32.478Z,2.47
2023-05-21T23:22:59.773Z,2.40
2023-05-21T23:25:27.036Z,2.40
2023-05-21T23:27:54.439Z,2.33
2023-05-21T23:30:21.824Z,2.40
2023-05-21T23:32:49.210Z,1.93
2023-05-21T23:35:16.587Z,2.20
2023-05-21T23:37:43.882Z,2.38
2023-05-21T23:40:11.845Z,2.35
2023-05-21T23:42:39.238Z,2.28
2023-05-21T23:45:07.064Z,2.33
2023-05-21T23:47:34.427Z,2.58
2023-05-21T23:50:01.696Z,2.63
2023-05-21T23:52:29.004Z,2.50
2023-05-21T23:54:57.535Z,2.30
2023-05-21T23:57:24.838Z,2.43
2023-05-21T23:59:52.195Z,2.33
